Airfield :
LOGIN :

Register | Disclaimer

   EN    FR    IT 

 










Legend :    VFR   Marginal VFR   IFR   Intensive IFR   Very Intensive IFR
Visi :
Ceiling :
>= 8 km
>= 3000ft
5 to 8 km
1000 to 3000 ft
1500m to 5 km
500 to 1000 ft
800 to 1500m
200 to 500 ft
< 800m
< 200 ft
Symbols :   Thunderstorms  Fog  Heavy snow  Heavy precipitations  Wind > 20 kt
SIGMETs :     Misc.  Thunderstorms  Icing  Turbulence  Mountain Waves  Volcanic Ashes






- Airport Elevation : 16 ft
- IATA code : EAS


LESO - San Sebastian Fuenterrabia

CURRENT METAR :
  • 230830Z 24007KT 190V300 9999 BKN022 SCT058 16/11 Q1021

EXPIRED METARs :
  • 230800Z 24007KT 140V300 9999 BKN020 SCT034 15/11 Q1021
  • 230730Z 25007KT 190V300 9999 BKN022 15/11 Q1021
  • 230700Z 24005KT 150V300 9999 SCT022 15/11 Q1021
  • 230630Z 23006KT 200V280 9999 SCT022 14/11 Q1021
  • 230600Z 23006KT 190V260 9999 BKN022 14/11 Q1021
  • 230530Z 22006KT 9999 BKN023 13/11 Q1021
  • 230500Z 22006KT 190V260 9999 BKN021 13/11 Q1021
  • 230430Z 23008KT 9999 BKN021 BKN045 13/11 Q1020
  • 230400Z 23006KT 190V260 9999 BKN020 BKN038 13/11 Q1020

TAF TAF LESO
Valid from the 23 at 06:00 until the 24 at 06:00 UTC


230500Z 2306/2406 25008KT 9999 SCT040 TX17/2312Z TN11/2405Z
TEMPO 2306/2313 RA
PROB30
TEMPO 2306/2313 BKN010



MET'MAP, your aeronautical weather chart ! - Copyright ORBIFLY December 2007 - Disclaimer

ORBIFLY MET'MAP TEAM :

Programming & Development : Alexandra Zaïnal
Original concept : Baudouin d'Aumeries
Technical & hardware support : Manuel Goepfert
Assistance : Marc-Olivier Méhu




SOURCES & CREDITS :

   NOAA